Time;durP1;ratioP1;P1;durP2;ratioP2;P2;SDS_P1;SDS_P2;PMS_P1;PMS_P2;Temp;Humidity;BMP_temperature;BMP_pressure;BME280_temperature;BME280_humidity;BME280_pressure;Samples;Min_cycle;Max_cycle;Signal;HPM_P1;HPM_P2
2021/12/31 00:01:44;;;;;;;;;;;18.80;44.40;;;;;;8297775;28;20378;-48
2021/12/31 00:05:44;;;;;;;;;;;18.80;44.40;;;;;;8298288;28;19960;-48
2021/12/31 00:09:46;;;;;;;;;;;18.80;44.40;;;;;;8298458;28;19924;-48
2021/12/31 00:13:46;;;;;;;;;;;18.80;44.40;;;;;;8297555;28;19917;-50
2021/12/31 00:17:47;;;;;;;;;;;18.80;44.30;;;;;;8297935;28;19917;-48
2021/12/31 00:21:49;;;;;;;;;;;18.80;44.30;;;;;;8297675;28;19929;-49
2021/12/31 00:25:50;;;;;;;;;;;18.80;44.40;;;;;;8297297;28;20023;-49
2021/12/31 00:29:51;;;;;;;;;;;18.80;44.40;;;;;;8297896;28;19914;-51
2021/12/31 00:33:51;;;;;;;;;;;18.80;44.30;;;;;;8297612;28;19918;-48
2021/12/31 00:37:52;;;;;;;;;;;18.80;44.30;;;;;;8297170;28;20322;-48
2021/12/31 00:41:52;;;;;;;;;;;18.80;44.40;;;;;;8297289;28;19926;-47
2021/12/31 00:45:53;;;;;;;;;;;18.80;44.40;;;;;;8297721;28;19991;-48
2021/12/31 00:49:53;;;;;;;;;;;18.70;44.30;;;;;;8297513;28;20485;-49
2021/12/31 00:53:53;;;;;;;;;;;18.70;44.30;;;;;;8297339;28;19918;-49
2021/12/31 00:57:54;;;;;;;;;;;18.70;44.30;;;;;;8297406;28;19921;-48
2021/12/31 01:01:54;;;;;;;;;;;18.80;44.40;;;;;;8296807;28;19929;-48
2021/12/31 01:05:55;;;;;;;;;;;18.70;44.30;;;;;;8297461;28;19921;-49
2021/12/31 01:09:56;;;;;;;;;;;18.70;44.30;;;;;;8297316;28;19914;-48
2021/12/31 01:14:00;;;;;;;;;;;18.70;44.30;;;;;;8296574;28;19918;-48
2021/12/31 01:18:16;;;;;;;;;;;18.70;44.30;;;;;;8297240;28;19976;-49
2021/12/31 01:22:18;;;;;;;;;;;18.70;44.40;;;;;;8297587;28;19926;-47
2021/12/31 01:26:18;;;;;;;;;;;18.70;44.30;;;;;;8296857;28;19917;-49
2021/12/31 01:30:19;;;;;;;;;;;18.70;44.40;;;;;;8296914;28;19920;-49
2021/12/31 01:34:22;;;;;;;;;;;18.70;44.40;;;;;;8296290;28;19917;-49
2021/12/31 01:38:23;;;;;;;;;;;18.70;44.30;;;;;;8297053;28;19917;-48
2021/12/31 01:42:30;;;;;;;;;;;18.70;44.30;;;;;;8296757;28;20426;-48
2021/12/31 01:46:30;;;;;;;;;;;18.70;44.30;;;;;;8296601;28;19926;-49
2021/12/31 01:50:32;;;;;;;;;;;18.70;44.30;;;;;;8297529;28;19968;-48
2021/12/31 01:54:33;;;;;;;;;;;18.70;44.40;;;;;;8302432;28;19941;-47
2021/12/31 01:58:34;;;;;;;;;;;18.70;44.40;;;;;;8301717;28;20283;-49
2021/12/31 02:02:35;;;;;;;;;;;18.70;44.30;;;;;;8301508;28;19929;-49
2021/12/31 02:06:35;;;;;;;;;;;18.70;44.40;;;;;;8302135;28;19918;-48
2021/12/31 02:10:36;;;;;;;;;;;18.70;44.30;;;;;;8301501;28;19921;-49
2021/12/31 02:14:37;;;;;;;;;;;18.70;44.30;;;;;;8301640;28;19924;-48
2021/12/31 02:18:38;;;;;;;;;;;18.70;44.50;;;;;;8301610;28;19918;-49
2021/12/31 02:22:39;;;;;;;;;;;18.70;44.30;;;;;;8300871;28;20294;-51
2021/12/31 02:26:40;;;;;;;;;;;18.70;44.30;;;;;;8301597;28;19917;-52
2021/12/31 02:30:40;;;;;;;;;;;18.70;44.30;;;;;;8301538;28;19960;-50
2021/12/31 02:34:41;;;;;;;;;;;18.70;44.30;;;;;;8300563;28;20028;-49
2021/12/31 02:38:43;;;;;;;;;;;18.60;44.30;;;;;;8301248;28;19924;-53
2021/12/31 02:42:44;;;;;;;;;;;18.60;44.30;;;;;;8301116;28;19967;-48
2021/12/31 02:46:44;;;;;;;;;;;18.60;44.30;;;;;;8300558;28;19921;-48
2021/12/31 02:50:45;;;;;;;;;;;18.60;44.30;;;;;;8300940;28;19924;-48
2021/12/31 02:54:46;;;;;;;;;;;18.60;44.30;;;;;;8300686;28;19922;-48
2021/12/31 02:58:47;;;;;;;;;;;18.60;44.30;;;;;;8299764;28;20309;-48
2021/12/31 03:02:48;;;;;;;;;;;18.60;44.30;;;;;;8299432;28;19932;-48
2021/12/31 03:06:50;;;;;;;;;;;18.60;44.30;;;;;;8300064;28;19949;-51
2021/12/31 03:10:52;;;;;;;;;;;18.60;44.30;;;;;;8299645;28;19925;-48
2021/12/31 03:14:54;;;;;;;;;;;18.60;44.30;;;;;;8299777;28;19924;-49
2021/12/31 03:18:56;;;;;;;;;;;18.60;44.30;;;;;;8299816;28;20393;-48
2021/12/31 03:22:56;;;;;;;;;;;18.60;44.30;;;;;;8299119;28;19926;-52
2021/12/31 03:26:56;;;;;;;;;;;18.60;44.40;;;;;;8299703;28;20179;-47
2021/12/31 03:30:57;;;;;;;;;;;18.60;44.30;;;;;;8299621;28;19921;-49
2021/12/31 03:34:57;;;;;;;;;;;18.60;44.30;;;;;;8298730;28;19960;-48
2021/12/31 03:38:58;;;;;;;;;;;18.60;44.40;;;;;;8299339;28;19917;-48
2021/12/31 03:42:58;;;;;;;;;;;18.60;44.30;;;;;;8298877;28;19928;-49
2021/12/31 03:46:59;;;;;;;;;;;18.60;44.40;;;;;;8298921;28;19928;-47
2021/12/31 03:50:59;;;;;;;;;;;18.60;44.40;;;;;;8298963;28;19914;-47
2021/12/31 03:55:00;;;;;;;;;;;18.60;44.40;;;;;;8298796;28;19932;-49
2021/12/31 03:59:00;;;;;;;;;;;18.60;44.30;;;;;;8298075;28;19925;-47
2021/12/31 04:03:04;;;;;;;;;;;18.60;44.40;;;;;;8298363;28;19971;-52
2021/12/31 04:07:05;;;;;;;;;;;18.60;44.40;;;;;;8298303;28;19921;-49
2021/12/31 04:11:05;;;;;;;;;;;18.60;44.40;;;;;;8297886;28;19920;-49
2021/12/31 04:15:06;;;;;;;;;;;18.50;44.30;;;;;;8297817;28;19921;-48
2021/12/31 04:19:06;;;;;;;;;;;18.60;44.40;;;;;;8297924;28;19924;-49
2021/12/31 04:23:13;;;;;;;;;;;18.60;44.40;;;;;;8297494;28;19925;-49
2021/12/31 04:27:14;;;;;;;;;;;18.60;44.40;;;;;;8299185;28;19918;-49
2021/12/31 04:31:14;;;;;;;;;;;18.60;44.40;;;;;;8298051;28;20322;-50
2021/12/31 04:35:17;;;;;;;;;;;18.60;44.40;;;;;;8297256;28;19927;-50
2021/12/31 04:39:17;;;;;;;;;;;18.60;44.40;;;;;;8298061;28;19928;-48
2021/12/31 04:43:18;;;;;;;;;;;18.50;44.50;;;;;;8297119;28;19926;-47
2021/12/31 04:47:18;;;;;;;;;;;18.50;44.40;;;;;;8297975;28;20044;-49
2021/12/31 04:51:19;;;;;;;;;;;18.60;44.40;;;;;;8297524;28;19940;-48
2021/12/31 04:55:19;;;;;;;;;;;18.60;44.50;;;;;;8297064;28;19917;-48
2021/12/31 04:59:20;;;;;;;;;;;18.60;44.50;;;;;;8297224;28;20275;-48
2021/12/31 05:03:21;;;;;;;;;;;18.60;44.50;;;;;;8296529;28;20051;-48
2021/12/31 05:07:22;;;;;;;;;;;18.60;44.50;;;;;;8296831;28;19918;-48
2021/12/31 05:11:22;;;;;;;;;;;18.60;44.40;;;;;;8297307;28;20001;-48
2021/12/31 05:15:27;;;;;;;;;;;18.60;44.40;;;;;;8296960;28;19918;-51
2021/12/31 05:19:27;;;;;;;;;;;18.60;44.40;;;;;;8296485;28;19918;-48
2021/12/31 05:23:28;;;;;;;;;;;18.60;44.40;;;;;;8296977;28;19929;-50
2021/12/31 05:27:28;;;;;;;;;;;18.60;44.40;;;;;;8300688;28;20287;-48
2021/12/31 05:31:29;;;;;;;;;;;18.60;44.40;;;;;;8302822;28;19914;-49
2021/12/31 05:35:29;;;;;;;;;;;18.60;44.40;;;;;;8303170;28;19971;-48
2021/12/31 05:39:30;;;;;;;;;;;18.60;44.40;;;;;;8301637;28;19925;-48
2021/12/31 05:43:30;;;;;;;;;;;18.60;44.40;;;;;;8302087;28;19973;-48
2021/12/31 05:47:30;;;;;;;;;;;18.60;44.40;;;;;;8302831;28;19925;-48
2021/12/31 05:51:31;;;;;;;;;;;18.60;44.30;;;;;;8302627;28;19925;-49
2021/12/31 05:55:32;;;;;;;;;;;18.60;44.40;;;;;;8301945;28;19940;-48
2021/12/31 05:59:34;;;;;;;;;;;18.60;44.40;;;;;;8301476;28;21503;-49
2021/12/31 06:03:34;;;;;;;;;;;18.60;44.40;;;;;;8302127;28;19922;-49
2021/12/31 06:07:34;;;;;;;;;;;18.60;44.40;;;;;;8301476;28;20309;-49
2021/12/31 06:11:35;;;;;;;;;;;18.60;44.40;;;;;;8301989;28;20446;-47
2021/12/31 06:15:35;;;;;;;;;;;18.60;44.40;;;;;;8301689;28;19917;-51
2021/12/31 06:19:38;;;;;;;;;;;18.60;44.30;;;;;;8301067;28;19968;-48
2021/12/31 06:23:38;;;;;;;;;;;18.60;44.40;;;;;;8301451;28;20279;-48
2021/12/31 06:27:38;;;;;;;;;;;18.60;44.40;;;;;;8301399;28;19917;-49
2021/12/31 06:31:39;;;;;;;;;;;18.60;44.30;;;;;;8300952;28;19921;-49
2021/12/31 06:35:39;;;;;;;;;;;18.60;44.40;;;;;;8301066;28;20302;-48
2021/12/31 06:39:42;;;;;;;;;;;18.60;44.40;;;;;;8300777;28;19920;-47
2021/12/31 06:43:43;;;;;;;;;;;18.60;44.40;;;;;;8300553;28;19971;-49
2021/12/31 06:47:43;;;;;;;;;;;18.60;44.40;;;;;;8301218;28;19921;-49
2021/12/31 06:51:44;;;;;;;;;;;18.60;44.40;;;;;;8300846;28;19918;-48
2021/12/31 06:55:44;;;;;;;;;;;18.60;44.30;;;;;;8300065;28;19972;-49
2021/12/31 06:59:44;;;;;;;;;;;18.60;44.30;;;;;;8300138;28;19928;-48
2021/12/31 07:03:45;;;;;;;;;;;18.60;44.40;;;;;;8300359;28;19975;-48
2021/12/31 07:07:45;;;;;;;;;;;18.60;44.40;;;;;;8299819;28;20008;-48
2021/12/31 07:11:46;;;;;;;;;;;18.60;44.40;;;;;;8300392;28;20334;-49
2021/12/31 07:15:50;;;;;;;;;;;18.60;44.40;;;;;;8299964;28;19921;-48
2021/12/31 07:19:50;;;;;;;;;;;18.60;44.30;;;;;;8299062;28;20048;-48
2021/12/31 07:23:51;;;;;;;;;;;18.60;44.40;;;;;;8299540;28;20264;-48
2021/12/31 07:27:53;;;;;;;;;;;18.60;44.30;;;;;;8299905;28;20000;-49
2021/12/31 07:31:54;;;;;;;;;;;18.60;44.40;;;;;;8299055;28;20425;-48
2021/12/31 07:35:54;;;;;;;;;;;18.60;44.40;;;;;;8299487;28;19918;-49
2021/12/31 07:40:00;;;;;;;;;;;18.60;44.40;;;;;;8299004;28;19922;-49
2021/12/31 07:44:01;;;;;;;;;;;18.60;44.30;;;;;;8298773;28;19967;-49
2021/12/31 07:48:03;;;;;;;;;;;18.60;44.40;;;;;;8298817;28;19921;-47
2021/12/31 07:52:03;;;;;;;;;;;18.60;44.30;;;;;;8299090;28;19918;-49
2021/12/31 07:56:04;;;;;;;;;;;18.60;44.30;;;;;;8298093;28;20349;-48
2021/12/31 08:00:05;;;;;;;;;;;18.60;44.30;;;;;;8298251;28;19972;-49
2021/12/31 08:04:05;;;;;;;;;;;18.60;44.30;;;;;;8298412;28;20396;-49
2021/12/31 08:08:06;;;;;;;;;;;18.60;44.30;;;;;;8297399;28;19952;-49
2021/12/31 08:12:07;;;;;;;;;;;18.60;44.20;;;;;;8298361;28;20389;-49
2021/12/31 08:16:07;;;;;;;;;;;18.60;44.20;;;;;;8298187;28;19918;-48
2021/12/31 08:20:08;;;;;;;;;;;18.60;44.30;;;;;;8297439;28;19975;-49
2021/12/31 08:24:08;;;;;;;;;;;18.60;44.30;;;;;;8298132;28;19924;-49
2021/12/31 08:28:09;;;;;;;;;;;18.60;44.30;;;;;;8298133;28;20023;-49
2021/12/31 08:32:09;;;;;;;;;;;18.60;44.30;;;;;;8297234;28;20366;-49
2021/12/31 08:36:10;;;;;;;;;;;18.60;44.20;;;;;;8298106;28;20355;-49
2021/12/31 08:40:11;;;;;;;;;;;18.60;44.20;;;;;;8297473;28;19921;-50
2021/12/31 08:44:11;;;;;;;;;;;18.60;44.80;;;;;;8297140;28;19917;-49
2021/12/31 08:48:11;;;;;;;;;;;18.60;44.20;;;;;;8297706;28;20393;-48
2021/12/31 08:52:12;;;;;;;;;;;18.60;44.20;;;;;;8297498;28;19964;-49
2021/12/31 08:56:12;;;;;;;;;;;18.60;44.20;;;;;;8296850;28;19918;-49
2021/12/31 09:00:13;;;;;;;;;;;18.60;44.20;;;;;;8299168;28;19918;-48
2021/12/31 09:04:13;;;;;;;;;;;18.60;44.20;;;;;;8304016;28;20382;-48
2021/12/31 09:08:15;;;;;;;;;;;18.60;44.20;;;;;;8303590;28;19914;-48
2021/12/31 09:12:15;;;;;;;;;;;18.60;44.20;;;;;;8303597;28;19925;-48
2021/12/31 09:16:16;;;;;;;;;;;18.60;44.20;;;;;;8303489;28;19918;-47
2021/12/31 09:20:17;;;;;;;;;;;18.60;44.10;;;;;;8303422;28;19988;-49
2021/12/31 09:24:17;;;;;;;;;;;18.60;44.20;;;;;;8303500;28;19968;-48
2021/12/31 09:28:17;;;;;;;;;;;18.60;44.20;;;;;;8303194;28;20024;-50
2021/12/31 09:32:18;;;;;;;;;;;18.60;44.20;;;;;;8303249;28;19917;-48
2021/12/31 09:36:18;;;;;;;;;;;18.60;44.10;;;;;;8303191;28;19925;-51
2021/12/31 09:40:19;;;;;;;;;;;18.60;44.10;;;;;;8302160;28;19963;-48
2021/12/31 09:44:20;;;;;;;;;;;18.70;44.30;;;;;;8302935;28;19957;-47
2021/12/31 09:48:21;;;;;;;;;;;18.60;44.10;;;;;;8303093;28;19917;-47
2021/12/31 09:52:22;;;;;;;;;;;18.70;44.20;;;;;;8302123;28;20310;-48
2021/12/31 09:56:23;;;;;;;;;;;18.60;44.10;;;;;;8302074;28;20298;-48
2021/12/31 10:00:26;;;;;;;;;;;18.60;44.10;;;;;;8302174;28;19936;-48
2021/12/31 10:04:47;;;;;;;;;;;18.70;44.10;;;;;;8301556;28;19917;-50
2021/12/31 10:08:48;;;;;;;;;;;18.70;44.20;;;;;;8302192;28;20453;-50
2021/12/31 10:12:51;;;;;;;;;;;18.70;44.10;;;;;;8301516;28;19918;-47
2021/12/31 10:16:52;;;;;;;;;;;18.70;44.20;;;;;;8301282;28;19917;-48
2021/12/31 10:20:52;;;;;;;;;;;18.70;44.20;;;;;;8301597;28;19933;-47
2021/12/31 10:24:53;;;;;;;;;;;18.70;44.10;;;;;;8301469;28;19921;-47
2021/12/31 10:28:54;;;;;;;;;;;18.70;44.20;;;;;;8300981;28;19941;-49
2021/12/31 10:32:55;;;;;;;;;;;18.70;44.10;;;;;;8301611;28;19917;-48
2021/12/31 10:36:56;;;;;;;;;;;18.70;44.10;;;;;;8301277;28;19922;-49
2021/12/31 10:41:00;;;;;;;;;;;18.70;44.10;;;;;;8300442;28;19929;-49
2021/12/31 10:45:02;;;;;;;;;;;18.70;44.10;;;;;;8300861;28;19929;-49
2021/12/31 10:49:09;;;;;;;;;;;18.70;44.10;;;;;;8300806;28;19996;-48
2021/12/31 10:53:12;;;;;;;;;;;18.70;44.20;;;;;;8300558;28;19917;-53
2021/12/31 10:57:32;;;;;;;;;;;18.80;44.20;;;;;;8300400;28;20283;-49
2021/12/31 11:01:33;;;;;;;;;;;18.80;44.20;;;;;;8299137;28;19933;-48
2021/12/31 11:05:34;;;;;;;;;;;18.80;44.20;;;;;;8300180;28;19924;-49
2021/12/31 11:09:35;;;;;;;;;;;18.80;44.20;;;;;;8300144;28;19977;-49
2021/12/31 11:13:35;;;;;;;;;;;18.80;44.10;;;;;;8299737;28;19925;-49
2021/12/31 11:17:36;;;;;;;;;;;18.90;44.20;;;;;;8299696;28;20371;-49
2021/12/31 11:21:37;;;;;;;;;;;18.90;44.10;;;;;;8299593;28;19925;-49
2021/12/31 11:25:49;;;;;;;;;;;18.90;44.20;;;;;;8298135;28;19917;-52
2021/12/31 11:29:49;;;;;;;;;;;18.90;44.10;;;;;;8299361;28;19925;-50
2021/12/31 11:33:59;;;;;;;;;;;18.90;44.20;;;;;;8299632;28;19920;-49
2021/12/31 11:38:00;;;;;;;;;;;18.90;44.10;;;;;;8298598;28;20337;-49
2021/12/31 11:42:11;;;;;;;;;;;18.90;44.10;;;;;;8299200;28;19953;-48
2021/12/31 11:46:12;;;;;;;;;;;18.90;44.10;;;;;;8299175;28;19979;-52
2021/12/31 11:50:24;;;;;;;;;;;18.90;44.00;;;;;;8298226;28;20323;-49
2021/12/31 11:54:24;;;;;;;;;;;19.00;44.10;;;;;;8299083;28;19917;-48
2021/12/31 11:58:38;;;;;;;;;;;19.00;44.10;;;;;;8298082;28;19996;-50
2021/12/31 12:02:40;;;;;;;;;;;19.00;44.10;;;;;;8298699;28;19952;-50
2021/12/31 12:06:59;;;;;;;;;;;19.00;44.00;;;;;;8298687;28;19917;-49
2021/12/31 12:11:00;;;;;;;;;;;19.00;44.20;;;;;;8297820;28;20416;-49
2021/12/31 12:15:01;;;;;;;;;;;19.00;44.00;;;;;;8298362;28;19914;-50
2021/12/31 12:19:03;;;;;;;;;;;19.00;44.50;;;;;;8296234;28;19918;-48
2021/12/31 12:23:10;;;;;;;;;;;19.00;44.00;;;;;;8297341;28;19988;-49
2021/12/31 12:27:13;;;;;;;;;;;19.00;44.00;;;;;;8295142;28;19964;-48
2021/12/31 12:31:16;;;;;;;;;;;19.00;44.00;;;;;;8276400;28;20421;-49
2021/12/31 12:35:24;;;;;;;;;;;19.00;44.00;;;;;;8297012;28;20015;-49
2021/12/31 12:39:24;;;;;;;;;;;19.00;44.00;;;;;;8299555;28;19925;-47
2021/12/31 12:43:35;;;;;;;;;;;19.00;44.10;;;;;;8297141;28;19931;-49
2021/12/31 12:47:36;;;;;;;;;;;19.00;44.00;;;;;;8284728;28;19933;-49
2021/12/31 12:51:39;;;;;;;;;;;19.00;44.00;;;;;;8277699;28;19913;-49
2021/12/31 12:55:40;;;;;;;;;;;19.00;44.00;;;;;;8291305;28;19924;-49
2021/12/31 12:59:42;;;;;;;;;;;19.00;44.00;;;;;;8296791;28;20418;-47
2021/12/31 13:03:49;;;;;;;;;;;19.10;44.00;;;;;;8285638;28;19929;-49
2021/12/31 13:07:53;;;;;;;;;;;19.00;44.00;;;;;;8303805;28;19918;-49
2021/12/31 13:11:56;;;;;;;;;;;19.00;43.90;;;;;;8285579;28;19918;-50
2021/12/31 13:15:56;;;;;;;;;;;19.00;44.00;;;;;;8295018;28;19918;-52
2021/12/31 13:20:07;;;;;;;;;;;19.00;43.90;;;;;;8267470;28;19918;-48
2021/12/31 13:24:08;;;;;;;;;;;19.00;44.00;;;;;;8294796;28;19921;-49
2021/12/31 13:28:35;;;;;;;;;;;19.00;43.90;;;;;;8281654;28;20426;-52
2021/12/31 13:32:36;;;;;;;;;;;19.00;44.00;;;;;;8278727;28;20004;-49
2021/12/31 13:36:46;;;;;;;;;;;19.00;44.00;;;;;;8292141;28;19914;-48
2021/12/31 13:40:50;;;;;;;;;;;19.00;43.90;;;;;;8296145;28;19930;-49
2021/12/31 13:44:51;;;;;;;;;;;19.00;43.90;;;;;;8293709;28;19922;-50
2021/12/31 13:49:00;;;;;;;;;;;19.00;44.40;;;;;;8299838;28;19921;-49
2021/12/31 13:53:00;;;;;;;;;;;19.00;43.90;;;;;;8300222;28;19917;-50
2021/12/31 13:57:01;;;;;;;;;;;19.00;44.00;;;;;;8291596;28;19924;-52
2021/12/31 14:01:10;;;;;;;;;;;19.00;44.00;;;;;;8300994;28;19926;-51
2021/12/31 14:05:11;;;;;;;;;;;19.00;44.00;;;;;;8300174;28;20379;-49
2021/12/31 14:09:12;;;;;;;;;;;19.10;44.60;;;;;;8292321;28;20012;-48
2021/12/31 14:13:12;;;;;;;;;;;19.00;44.00;;;;;;8301885;28;19918;-49
2021/12/31 14:17:13;;;;;;;;;;;19.10;44.10;;;;;;8310976;28;20449;-51
2021/12/31 14:21:13;;;;;;;;;;;19.10;44.10;;;;;;8299575;28;19979;-49
2021/12/31 14:25:14;;;;;;;;;;;19.10;44.10;;;;;;8301420;28;19921;-49
2021/12/31 14:29:15;;;;;;;;;;;19.00;44.10;;;;;;8303849;28;19953;-49
2021/12/31 14:33:17;;;;;;;;;;;19.00;44.10;;;;;;8301497;28;19917;-50
2021/12/31 14:37:18;;;;;;;;;;;19.00;44.10;;;;;;8300836;28;20445;-49
2021/12/31 14:41:21;;;;;;;;;;;19.00;44.10;;;;;;8301103;28;20012;-48
2021/12/31 14:45:22;;;;;;;;;;;19.00;44.10;;;;;;8306110;28;20325;-48
2021/12/31 14:49:24;;;;;;;;;;;19.10;44.10;;;;;;8323560;28;19927;-51
2021/12/31 14:53:24;;;;;;;;;;;19.00;44.10;;;;;;8300595;28;19922;-49
2021/12/31 14:57:25;;;;;;;;;;;19.00;44.10;;;;;;8300466;28;20345;-48
2021/12/31 15:01:25;;;;;;;;;;;19.10;44.10;;;;;;8299387;28;20279;-50
2021/12/31 15:05:26;;;;;;;;;;;19.00;43.90;;;;;;8300177;28;19917;-49
2021/12/31 15:09:26;;;;;;;;;;;19.00;44.10;;;;;;8300132;28;19921;-48
2021/12/31 15:13:27;;;;;;;;;;;19.00;43.90;;;;;;8299366;28;19917;-51
2021/12/31 15:17:28;;;;;;;;;;;19.00;44.10;;;;;;8299848;28;20405;-50
2021/12/31 15:21:29;;;;;;;;;;;19.00;44.00;;;;;;8299485;28;19975;-48
2021/12/31 15:25:29;;;;;;;;;;;19.00;44.00;;;;;;8299188;28;20363;-51
2021/12/31 15:29:30;;;;;;;;;;;19.00;44.00;;;;;;8299475;28;19953;-50
2021/12/31 15:33:31;;;;;;;;;;;19.00;44.00;;;;;;8299309;28;19922;-47
2021/12/31 15:37:31;;;;;;;;;;;19.00;44.10;;;;;;8298756;28;20004;-51
2021/12/31 15:41:37;;;;;;;;;;;19.00;44.10;;;;;;8298995;28;19926;-48
2021/12/31 15:45:39;;;;;;;;;;;19.00;44.00;;;;;;8299810;28;20392;-49
2021/12/31 15:49:40;;;;;;;;;;;19.00;43.90;;;;;;8298259;28;19966;-52
2021/12/31 15:53:40;;;;;;;;;;;19.00;44.10;;;;;;8298432;28;19924;-49
2021/12/31 15:57:40;;;;;;;;;;;19.00;43.90;;;;;;8302262;28;19918;-49
2021/12/31 16:01:41;;;;;;;;;;;19.00;44.10;;;;;;8297621;28;19933;-50
2021/12/31 16:05:43;;;;;;;;;;;19.00;44.00;;;;;;8298478;28;19953;-49
2021/12/31 16:09:44;;;;;;;;;;;19.00;44.10;;;;;;8297793;28;19918;-48
2021/12/31 16:13:44;;;;;;;;;;;19.00;44.00;;;;;;8297830;28;20008;-51
2021/12/31 16:17:45;;;;;;;;;;;19.00;44.00;;;;;;8298127;28;20263;-49
2021/12/31 16:21:46;;;;;;;;;;;19.00;44.00;;;;;;8298030;28;19973;-49
2021/12/31 16:25:46;;;;;;;;;;;19.00;43.90;;;;;;8297633;28;20398;-49
2021/12/31 16:29:52;;;;;;;;;;;19.00;44.00;;;;;;8296229;28;20353;-47
2021/12/31 16:33:52;;;;;;;;;;;19.00;43.90;;;;;;8284588;28;19917;-48
2021/12/31 16:37:52;;;;;;;;;;;19.00;44.00;;;;;;8278539;28;19940;-49
2021/12/31 16:41:53;;;;;;;;;;;19.00;44.00;;;;;;8296316;28;20011;-48
2021/12/31 16:45:54;;;;;;;;;;;19.00;43.90;;;;;;8296817;28;20567;-47
2021/12/31 16:49:54;;;;;;;;;;;19.00;44.00;;;;;;8296914;28;19917;-48
2021/12/31 16:53:54;;;;;;;;;;;19.00;44.00;;;;;;8297397;28;19918;-51
2021/12/31 16:57:55;;;;;;;;;;;19.00;43.90;;;;;;8297306;28;19918;-49
2021/12/31 17:01:55;;;;;;;;;;;19.00;43.90;;;;;;8296794;28;19969;-49
2021/12/31 17:05:56;;;;;;;;;;;19.00;43.90;;;;;;8297274;28;19924;-48
2021/12/31 17:09:56;;;;;;;;;;;19.00;43.90;;;;;;8296126;28;19922;-48
2021/12/31 17:13:57;;;;;;;;;;;19.00;43.90;;;;;;8296724;28;19976;-48
2021/12/31 17:17:57;;;;;;;;;;;19.00;43.80;;;;;;8296872;28;20394;-48
2021/12/31 17:21:58;;;;;;;;;;;19.00;43.90;;;;;;8298336;28;19926;-48
2021/12/31 17:25:58;;;;;;;;;;;19.00;43.80;;;;;;8303048;28;20346;-49
2021/12/31 17:29:59;;;;;;;;;;;19.00;43.80;;;;;;8303171;28;20410;-48
2021/12/31 17:33:59;;;;;;;;;;;19.00;43.80;;;;;;8303212;28;19919;-48
2021/12/31 17:38:00;;;;;;;;;;;18.90;43.80;;;;;;8302519;28;19918;-48
2021/12/31 17:42:00;;;;;;;;;;;19.00;43.90;;;;;;8302850;28;19968;-48
2021/12/31 17:46:01;;;;;;;;;;;19.00;43.70;;;;;;8303259;28;19922;-49
2021/12/31 17:50:02;;;;;;;;;;;18.90;43.80;;;;;;8302138;28;19924;-49
2021/12/31 17:54:02;;;;;;;;;;;18.90;43.80;;;;;;8302389;28;20295;-52
2021/12/31 17:58:03;;;;;;;;;;;19.00;43.80;;;;;;8302374;28;19925;-47
2021/12/31 18:02:04;;;;;;;;;;;19.00;43.80;;;;;;8301174;28;19941;-48
2021/12/31 18:06:04;;;;;;;;;;;18.90;44.30;;;;;;8302288;28;19917;-48
2021/12/31 18:10:05;;;;;;;;;;;18.90;43.70;;;;;;8301802;28;20417;-48
2021/12/31 18:14:06;;;;;;;;;;;18.90;43.60;;;;;;8301233;28;19971;-47
2021/12/31 18:18:06;;;;;;;;;;;18.90;43.70;;;;;;8301632;28;19921;-48
2021/12/31 18:22:07;;;;;;;;;;;18.90;43.70;;;;;;8302023;28;19925;-47
2021/12/31 18:26:07;;;;;;;;;;;18.90;43.70;;;;;;8301082;28;20093;-51
2021/12/31 18:30:08;;;;;;;;;;;18.90;43.70;;;;;;8301680;28;19917;-48
2021/12/31 18:34:09;;;;;;;;;;;18.90;43.60;;;;;;8301078;28;19918;-48
2021/12/31 18:38:09;;;;;;;;;;;18.90;43.60;;;;;;8300850;28;20282;-49
2021/12/31 18:42:10;;;;;;;;;;;18.90;43.60;;;;;;8301294;28;19921;-48
2021/12/31 18:46:20;;;;;;;;;;;18.90;43.70;;;;;;8301528;28;19972;-49
2021/12/31 18:50:22;;;;;;;;;;;18.90;44.20;;;;;;8300501;28;19917;-48
2021/12/31 18:54:23;;;;;;;;;;;18.90;43.60;;;;;;8300629;28;19953;-48
2021/12/31 18:58:25;;;;;;;;;;;18.90;43.60;;;;;;8300005;28;19940;-47
2021/12/31 19:02:27;;;;;;;;;;;18.90;43.60;;;;;;8300878;28;19928;-48
2021/12/31 19:06:28;;;;;;;;;;;18.90;43.60;;;;;;8300247;28;20382;-49
2021/12/31 19:10:28;;;;;;;;;;;18.90;43.60;;;;;;8299711;28;19925;-49
2021/12/31 19:14:28;;;;;;;;;;;18.90;43.60;;;;;;8300043;28;20000;-48
2021/12/31 19:18:30;;;;;;;;;;;18.90;43.60;;;;;;8299923;28;19924;-49
2021/12/31 19:22:30;;;;;;;;;;;18.90;43.60;;;;;;8299415;28;19929;-48
2021/12/31 19:26:31;;;;;;;;;;;18.90;43.60;;;;;;8299625;28;20282;-48
2021/12/31 19:30:31;;;;;;;;;;;18.90;43.60;;;;;;8299452;28;19940;-49
2021/12/31 19:34:32;;;;;;;;;;;18.90;43.50;;;;;;8299006;28;20358;-48
2021/12/31 19:38:32;;;;;;;;;;;18.80;43.60;;;;;;8299334;28;19917;-49
2021/12/31 19:42:32;;;;;;;;;;;18.80;43.50;;;;;;8299237;28;19922;-48
2021/12/31 19:46:33;;;;;;;;;;;18.80;43.50;;;;;;8297893;28;20282;-48
2021/12/31 19:50:34;;;;;;;;;;;18.80;43.60;;;;;;8298915;28;19924;-48
2021/12/31 19:54:35;;;;;;;;;;;18.90;43.50;;;;;;8298755;28;19918;-49
2021/12/31 19:58:35;;;;;;;;;;;18.80;43.40;;;;;;8264535;28;20008;-48
2021/12/31 20:02:35;;;;;;;;;;;18.80;43.40;;;;;;8266173;28;19926;-47
2021/12/31 20:06:36;;;;;;;;;;;18.80;43.50;;;;;;8264945;28;20402;-49
2021/12/31 20:10:39;;;;;;;;;;;18.80;43.40;;;;;;8265440;28;19933;-48
2021/12/31 20:14:39;;;;;;;;;;;18.80;43.50;;;;;;8265595;28;20005;-50
2021/12/31 20:18:40;;;;;;;;;;;18.80;43.50;;;;;;8265724;28;20347;-49
2021/12/31 20:22:41;;;;;;;;;;;18.80;43.50;;;;;;8265133;28;19928;-48
2021/12/31 20:26:42;;;;;;;;;;;18.80;43.50;;;;;;8265563;28;19918;-48
2021/12/31 20:30:42;;;;;;;;;;;18.80;43.40;;;;;;8265376;28;19918;-48
2021/12/31 20:34:43;;;;;;;;;;;18.80;43.50;;;;;;8264848;28;19917;-48
2021/12/31 20:38:43;;;;;;;;;;;18.80;43.40;;;;;;8265529;28;19974;-49
2021/12/31 20:42:44;;;;;;;;;;;18.80;43.30;;;;;;8264184;28;19922;-48
2021/12/31 20:46:44;;;;;;;;;;;18.80;43.30;;;;;;8264671;28;19922;-48
2021/12/31 20:50:45;;;;;;;;;;;18.80;43.40;;;;;;8265018;28;19917;-49
2021/12/31 20:54:45;;;;;;;;;;;18.80;43.30;;;;;;8265122;28;20386;-48
2021/12/31 20:58:46;;;;;;;;;;;18.80;43.30;;;;;;8270706;28;19917;-48
2021/12/31 21:02:46;;;;;;;;;;;18.80;43.30;;;;;;8271852;28;19926;-47
2021/12/31 21:06:47;;;;;;;;;;;18.80;43.30;;;;;;8271412;28;20298;-48
2021/12/31 21:10:47;;;;;;;;;;;18.80;43.30;;;;;;8270921;28;19922;-50
2021/12/31 21:14:48;;;;;;;;;;;18.70;43.20;;;;;;8271619;28;19914;-48
2021/12/31 21:18:48;;;;;;;;;;;18.80;43.30;;;;;;8271293;28;20008;-49
2021/12/31 21:22:49;;;;;;;;;;;18.70;43.20;;;;;;8270917;28;19989;-48
2021/12/31 21:26:49;;;;;;;;;;;18.70;43.20;;;;;;8270893;28;19972;-48
2021/12/31 21:30:52;;;;;;;;;;;18.70;43.10;;;;;;8270891;28;19986;-48
2021/12/31 21:34:52;;;;;;;;;;;18.70;43.20;;;;;;8270347;28;19918;-50
2021/12/31 21:38:53;;;;;;;;;;;18.70;43.10;;;;;;8270550;28;20371;-49
2021/12/31 21:42:53;;;;;;;;;;;18.70;43.10;;;;;;8270603;28;19933;-48
2021/12/31 21:46:54;;;;;;;;;;;18.70;43.10;;;;;;8270116;28;20024;-50
2021/12/31 21:50:54;;;;;;;;;;;18.70;43.10;;;;;;8270172;28;20025;-48
2021/12/31 21:54:55;;;;;;;;;;;18.70;43.10;;;;;;8270136;28;20291;-48
2021/12/31 21:58:55;;;;;;;;;;;18.70;43.10;;;;;;8269530;28;19961;-49
2021/12/31 22:02:56;;;;;;;;;;;18.70;43.10;;;;;;8270032;28;19937;-48
2021/12/31 22:06:59;;;;;;;;;;;18.70;43.10;;;;;;8269772;28;19929;-48
2021/12/31 22:10:59;;;;;;;;;;;18.70;43.10;;;;;;8268888;28;19918;-48
2021/12/31 22:15:00;;;;;;;;;;;18.70;43.10;;;;;;8269481;28;20426;-47
2021/12/31 22:19:00;;;;;;;;;;;18.70;43.10;;;;;;8269617;28;19918;-48
2021/12/31 22:23:01;;;;;;;;;;;18.60;43.10;;;;;;8268942;28;19925;-48
2021/12/31 22:27:01;;;;;;;;;;;18.60;43.00;;;;;;8269088;28;19979;-47
2021/12/31 22:31:02;;;;;;;;;;;18.60;43.00;;;;;;8269101;28;19976;-47
2021/12/31 22:35:03;;;;;;;;;;;18.60;43.00;;;;;;8268399;28;19953;-49
2021/12/31 22:39:03;;;;;;;;;;;18.60;43.00;;;;;;8268946;28;19914;-48
2021/12/31 22:43:04;;;;;;;;;;;18.60;43.00;;;;;;8268894;28;19926;-47
2021/12/31 22:47:08;;;;;;;;;;;18.60;43.00;;;;;;8268487;28;19922;-50
2021/12/31 22:51:08;;;;;;;;;;;18.60;43.00;;;;;;8268220;28;19996;-48
2021/12/31 22:55:09;;;;;;;;;;;18.50;43.00;;;;;;8268350;28;19940;-48
2021/12/31 22:59:10;;;;;;;;;;;18.60;42.90;;;;;;8267595;28;20383;-48
2021/12/31 23:03:10;;;;;;;;;;;18.60;43.00;;;;;;8267649;28;19929;-48
2021/12/31 23:07:11;;;;;;;;;;;18.50;42.90;;;;;;8267819;28;19918;-49
2021/12/31 23:11:12;;;;;;;;;;;18.50;42.90;;;;;;8266707;28;19918;-48
2021/12/31 23:15:13;;;;;;;;;;;18.50;42.90;;;;;;8267840;28;20001;-49
2021/12/31 23:19:13;;;;;;;;;;;18.50;42.80;;;;;;8267786;28;19920;-49
2021/12/31 23:23:14;;;;;;;;;;;18.50;42.80;;;;;;8266994;28;19922;-49